sensor_id;sensor_type;location;lat;lon;timestamp;P1;durP1;ratioP1;P2;durP2;ratioP2
7607;SDS011;3845;48.120;11.534;2023-11-21T00:00:14;9.17;;;4.30;;
7607;SDS011;3845;48.120;11.534;2023-11-21T00:02:40;4.83;;;2.70;;
7607;SDS011;3845;48.120;11.534;2023-11-21T00:05:10;6.53;;;2.20;;
7607;SDS011;3845;48.120;11.534;2023-11-21T00:07:37;4.67;;;1.90;;
7607;SDS011;3845;48.120;11.534;2023-11-21T00:10:03;6.03;;;1.80;;
7607;SDS011;3845;48.120;11.534;2023-11-21T00:12:30;6.07;;;1.97;;
7607;SDS011;3845;48.120;11.534;2023-11-21T00:14:57;4.07;;;1.80;;
7607;SDS011;3845;48.120;11.534;2023-11-21T00:17:22;5.83;;;1.90;;
7607;SDS011;3845;48.120;11.534;2023-11-21T00:19:48;4.63;;;1.80;;
7607;SDS011;3845;48.120;11.534;2023-11-21T00:22:13;4.60;;;1.70;;
7607;SDS011;3845;48.120;11.534;2023-11-21T00:24:38;3.90;;;1.50;;
7607;SDS011;3845;48.120;11.534;2023-11-21T00:27:04;4.10;;;1.80;;
7607;SDS011;3845;48.120;11.534;2023-11-21T00:29:31;3.13;;;1.60;;
7607;SDS011;3845;48.120;11.534;2023-11-21T00:31:56;3.93;;;1.70;;
7607;SDS011;3845;48.120;11.534;2023-11-21T00:34:21;5.10;;;1.80;;
7607;SDS011;3845;48.120;11.534;2023-11-21T00:36:46;2.70;;;1.40;;
7607;SDS011;3845;48.120;11.534;2023-11-21T00:39:12;2.97;;;1.40;;
7607;SDS011;3845;48.120;11.534;2023-11-21T00:41:37;1.93;;;1.30;;
7607;SDS011;3845;48.120;11.534;2023-11-21T00:44:02;2.93;;;1.30;;
7607;SDS011;3845;48.120;11.534;2023-11-21T00:46:28;2.63;;;1.30;;
7607;SDS011;3845;48.120;11.534;2023-11-21T00:48:54;2.23;;;1.30;;
7607;SDS011;3845;48.120;11.534;2023-11-21T00:51:20;2.93;;;1.20;;
7607;SDS011;3845;48.120;11.534;2023-11-21T00:53:51;2.90;;;1.20;;
7607;SDS011;3845;48.120;11.534;2023-11-21T00:56:17;3.57;;;1.20;;
7607;SDS011;3845;48.120;11.534;2023-11-21T00:58:42;1.53;;;0.90;;
7607;SDS011;3845;48.120;11.534;2023-11-21T01:01:11;1.87;;;0.90;;
7607;SDS011;3845;48.120;11.534;2023-11-21T01:03:36;2.60;;;1.03;;
7607;SDS011;3845;48.120;11.534;2023-11-21T01:06:02;2.47;;;1.10;;
7607;SDS011;3845;48.120;11.534;2023-11-21T01:08:27;1.70;;;1.07;;
7607;SDS011;3845;48.120;11.534;2023-11-21T01:10:53;2.63;;;1.20;;
7607;SDS011;3845;48.120;11.534;2023-11-21T01:13:19;1.57;;;1.10;;
7607;SDS011;3845;48.120;11.534;2023-11-21T01:15:45;1.90;;;1.00;;
7607;SDS011;3845;48.120;11.534;2023-11-21T01:18:12;2.73;;;1.20;;
7607;SDS011;3845;48.120;11.534;2023-11-21T01:20:37;2.07;;;1.20;;
7607;SDS011;3845;48.120;11.534;2023-11-21T01:23:03;3.17;;;1.20;;
7607;SDS011;3845;48.120;11.534;2023-11-21T01:25:28;2.53;;;1.20;;
7607;SDS011;3845;48.120;11.534;2023-11-21T01:27:54;1.57;;;1.10;;
7607;SDS011;3845;48.120;11.534;2023-11-21T01:30:19;2.10;;;1.10;;
7607;SDS011;3845;48.120;11.534;2023-11-21T01:32:44;2.47;;;1.20;;
7607;SDS011;3845;48.120;11.534;2023-11-21T01:35:10;2.80;;;1.20;;
7607;SDS011;3845;48.120;11.534;2023-11-21T01:37:35;2.83;;;1.10;;
7607;SDS011;3845;48.120;11.534;2023-11-21T01:40:01;2.50;;;1.20;;
7607;SDS011;3845;48.120;11.534;2023-11-21T01:42:27;1.90;;;1.20;;
7607;SDS011;3845;48.120;11.534;2023-11-21T01:44:54;2.30;;;1.23;;
7607;SDS011;3845;48.120;11.534;2023-11-21T01:47:19;3.23;;;1.30;;
7607;SDS011;3845;48.120;11.534;2023-11-21T01:49:46;2.83;;;1.10;;
7607;SDS011;3845;48.120;11.534;2023-11-21T01:52:11;3.03;;;1.50;;
7607;SDS011;3845;48.120;11.534;2023-11-21T01:54:37;3.30;;;1.27;;
7607;SDS011;3845;48.120;11.534;2023-11-21T01:57:02;2.80;;;1.27;;
7607;SDS011;3845;48.120;11.534;2023-11-21T01:59:34;3.57;;;1.60;;
7607;SDS011;3845;48.120;11.534;2023-11-21T02:02:01;3.50;;;1.93;;
7607;SDS011;3845;48.120;11.534;2023-11-21T02:04:31;5.07;;;1.70;;
7607;SDS011;3845;48.120;11.534;2023-11-21T02:06:57;2.73;;;1.50;;
7607;SDS011;3845;48.120;11.534;2023-11-21T02:09:24;2.90;;;1.40;;
7607;SDS011;3845;48.120;11.534;2023-11-21T02:11:50;2.27;;;1.23;;
7607;SDS011;3845;48.120;11.534;2023-11-21T02:14:16;2.90;;;1.50;;
7607;SDS011;3845;48.120;11.534;2023-11-21T02:16:45;5.37;;;1.70;;
7607;SDS011;3845;48.120;11.534;2023-11-21T02:19:12;2.43;;;1.20;;
7607;SDS011;3845;48.120;11.534;2023-11-21T02:21:54;3.37;;;1.40;;
7607;SDS011;3845;48.120;11.534;2023-11-21T02:24:23;3.63;;;1.33;;
7607;SDS011;3845;48.120;11.534;2023-11-21T02:26:48;2.50;;;1.40;;
7607;SDS011;3845;48.120;11.534;2023-11-21T02:29:16;3.53;;;1.50;;
7607;SDS011;3845;48.120;11.534;2023-11-21T02:31:43;8.17;;;1.70;;
7607;SDS011;3845;48.120;11.534;2023-11-21T02:34:15;5.23;;;1.60;;
7607;SDS011;3845;48.120;11.534;2023-11-21T02:36:41;4.10;;;1.60;;
7607;SDS011;3845;48.120;11.534;2023-11-21T02:39:07;2.67;;;1.47;;
7607;SDS011;3845;48.120;11.534;2023-11-21T02:41:33;4.53;;;1.80;;
7607;SDS011;3845;48.120;11.534;2023-11-21T02:43:59;2.93;;;1.33;;
7607;SDS011;3845;48.120;11.534;2023-11-21T02:46:25;3.93;;;1.43;;
7607;SDS011;3845;48.120;11.534;2023-11-21T02:48:50;3.20;;;1.40;;
7607;SDS011;3845;48.120;11.534;2023-11-21T02:51:16;2.93;;;1.20;;
7607;SDS011;3845;48.120;11.534;2023-11-21T02:53:41;3.13;;;1.30;;
7607;SDS011;3845;48.120;11.534;2023-11-21T02:56:06;2.23;;;1.00;;
7607;SDS011;3845;48.120;11.534;2023-11-21T02:58:32;2.53;;;1.30;;
7607;SDS011;3845;48.120;11.534;2023-11-21T03:00:57;2.20;;;1.20;;
7607;SDS011;3845;48.120;11.534;2023-11-21T03:03:22;2.13;;;1.30;;
7607;SDS011;3845;48.120;11.534;2023-11-21T03:05:49;1.77;;;1.10;;
7607;SDS011;3845;48.120;11.534;2023-11-21T03:08:14;2.50;;;1.27;;
7607;SDS011;3845;48.120;11.534;2023-11-21T03:10:40;2.27;;;1.23;;
7607;SDS011;3845;48.120;11.534;2023-11-21T03:13:05;2.07;;;1.10;;
7607;SDS011;3845;48.120;11.534;2023-11-21T03:15:30;2.13;;;1.17;;
7607;SDS011;3845;48.120;11.534;2023-11-21T03:17:57;2.80;;;1.33;;
7607;SDS011;3845;48.120;11.534;2023-11-21T03:20:22;2.87;;;1.40;;
7607;SDS011;3845;48.120;11.534;2023-11-21T03:22:48;2.80;;;1.27;;
7607;SDS011;3845;48.120;11.534;2023-11-21T03:25:13;2.63;;;1.27;;
7607;SDS011;3845;48.120;11.534;2023-11-21T03:27:38;2.93;;;1.17;;
7607;SDS011;3845;48.120;11.534;2023-11-21T03:30:04;2.93;;;1.33;;
7607;SDS011;3845;48.120;11.534;2023-11-21T03:32:31;2.67;;;1.40;;
7607;SDS011;3845;48.120;11.534;2023-11-21T03:34:58;3.00;;;1.20;;
7607;SDS011;3845;48.120;11.534;2023-11-21T03:37:23;2.90;;;1.33;;
7607;SDS011;3845;48.120;11.534;2023-11-21T03:39:50;1.80;;;1.10;;
7607;SDS011;3845;48.120;11.534;2023-11-21T03:42:15;2.63;;;1.10;;
7607;SDS011;3845;48.120;11.534;2023-11-21T03:44:41;3.43;;;1.40;;
7607;SDS011;3845;48.120;11.534;2023-11-21T03:47:06;3.27;;;1.40;;
7607;SDS011;3845;48.120;11.534;2023-11-21T03:49:31;2.30;;;1.40;;
7607;SDS011;3845;48.120;11.534;2023-11-21T03:51:56;2.60;;;1.10;;
7607;SDS011;3845;48.120;11.534;2023-11-21T03:54:22;2.17;;;1.23;;
7607;SDS011;3845;48.120;11.534;2023-11-21T03:56:47;3.63;;;1.37;;
7607;SDS011;3845;48.120;11.534;2023-11-21T03:59:12;3.60;;;1.23;;
7607;SDS011;3845;48.120;11.534;2023-11-21T04:01:37;3.37;;;1.30;;
7607;SDS011;3845;48.120;11.534;2023-11-21T04:04:03;1.93;;;1.10;;
7607;SDS011;3845;48.120;11.534;2023-11-21T04:06:29;1.33;;;0.80;;
7607;SDS011;3845;48.120;11.534;2023-11-21T04:08:54;2.07;;;1.00;;
7607;SDS011;3845;48.120;11.534;2023-11-21T04:11:19;2.93;;;0.90;;
7607;SDS011;3845;48.120;11.534;2023-11-21T04:13:45;1.47;;;0.90;;
7607;SDS011;3845;48.120;11.534;2023-11-21T04:16:11;2.13;;;1.10;;
7607;SDS011;3845;48.120;11.534;2023-11-21T04:18:37;2.13;;;0.97;;
7607;SDS011;3845;48.120;11.534;2023-11-21T04:21:04;2.27;;;0.90;;
7607;SDS011;3845;48.120;11.534;2023-11-21T04:23:30;3.90;;;1.20;;
7607;SDS011;3845;48.120;11.534;2023-11-21T04:25:56;2.60;;;1.33;;
7607;SDS011;3845;48.120;11.534;2023-11-21T04:28:22;3.00;;;1.23;;
7607;SDS011;3845;48.120;11.534;2023-11-21T04:30:49;3.10;;;1.20;;
7607;SDS011;3845;48.120;11.534;2023-11-21T04:33:14;3.67;;;1.57;;
7607;SDS011;3845;48.120;11.534;2023-11-21T04:35:39;3.47;;;1.43;;
7607;SDS011;3845;48.120;11.534;2023-11-21T04:38:05;4.80;;;1.20;;
7607;SDS011;3845;48.120;11.534;2023-11-21T04:40:30;4.60;;;2.27;;
7607;SDS011;3845;48.120;11.534;2023-11-21T04:42:55;3.73;;;1.50;;
7607;SDS011;3845;48.120;11.534;2023-11-21T04:45:22;3.47;;;1.40;;
7607;SDS011;3845;48.120;11.534;2023-11-21T04:47:47;2.70;;;1.13;;
7607;SDS011;3845;48.120;11.534;2023-11-21T04:50:12;3.17;;;1.10;;
7607;SDS011;3845;48.120;11.534;2023-11-21T04:52:38;3.83;;;1.20;;
7607;SDS011;3845;48.120;11.534;2023-11-21T04:55:03;2.00;;;1.20;;
7607;SDS011;3845;48.120;11.534;2023-11-21T04:57:28;2.57;;;1.17;;
7607;SDS011;3845;48.120;11.534;2023-11-21T04:59:54;2.47;;;1.30;;
7607;SDS011;3845;48.120;11.534;2023-11-21T05:02:19;1.93;;;1.20;;
7607;SDS011;3845;48.120;11.534;2023-11-21T05:04:46;2.73;;;0.97;;
7607;SDS011;3845;48.120;11.534;2023-11-21T05:07:11;2.07;;;1.00;;
7607;SDS011;3845;48.120;11.534;2023-11-21T05:09:40;1.47;;;1.07;;
7607;SDS011;3845;48.120;11.534;2023-11-21T05:12:06;2.63;;;1.20;;
7607;SDS011;3845;48.120;11.534;2023-11-21T05:14:32;2.33;;;1.10;;
7607;SDS011;3845;48.120;11.534;2023-11-21T05:16:57;2.23;;;1.30;;
7607;SDS011;3845;48.120;11.534;2023-11-21T05:19:24;2.77;;;1.00;;
7607;SDS011;3845;48.120;11.534;2023-11-21T05:21:49;2.37;;;1.10;;
7607;SDS011;3845;48.120;11.534;2023-11-21T05:24:14;2.63;;;1.30;;
7607;SDS011;3845;48.120;11.534;2023-11-21T05:26:40;2.63;;;1.20;;
7607;SDS011;3845;48.120;11.534;2023-11-21T05:29:05;4.57;;;2.97;;
7607;SDS011;3845;48.120;11.534;2023-11-21T05:31:30;2.80;;;1.97;;
7607;SDS011;3845;48.120;11.534;2023-11-21T05:33:56;3.67;;;2.27;;
7607;SDS011;3845;48.120;11.534;2023-11-21T05:36:21;4.80;;;3.10;;
7607;SDS011;3845;48.120;11.534;2023-11-21T05:38:46;4.03;;;2.30;;
7607;SDS011;3845;48.120;11.534;2023-11-21T05:41:12;2.43;;;1.70;;
7607;SDS011;3845;48.120;11.534;2023-11-21T05:43:38;3.13;;;1.70;;
7607;SDS011;3845;48.120;11.534;2023-11-21T05:46:04;2.60;;;1.30;;
7607;SDS011;3845;48.120;11.534;2023-11-21T05:48:30;2.73;;;1.50;;
7607;SDS011;3845;48.120;11.534;2023-11-21T05:50:56;3.53;;;1.43;;
7607;SDS011;3845;48.120;11.534;2023-11-21T05:53:21;2.87;;;1.60;;
7607;SDS011;3845;48.120;11.534;2023-11-21T05:55:46;2.77;;;1.37;;
7607;SDS011;3845;48.120;11.534;2023-11-21T05:58:12;3.57;;;1.43;;
7607;SDS011;3845;48.120;11.534;2023-11-21T06:00:38;4.53;;;1.60;;
7607;SDS011;3845;48.120;11.534;2023-11-21T06:03:03;2.33;;;1.50;;
7607;SDS011;3845;48.120;11.534;2023-11-21T06:05:31;2.73;;;1.50;;
7607;SDS011;3845;48.120;11.534;2023-11-21T06:07:57;2.93;;;1.50;;
7607;SDS011;3845;48.120;11.534;2023-11-21T06:10:25;3.07;;;1.70;;
7607;SDS011;3845;48.120;11.534;2023-11-21T06:12:51;4.00;;;1.70;;
7607;SDS011;3845;48.120;11.534;2023-11-21T06:15:18;4.97;;;1.90;;
7607;SDS011;3845;48.120;11.534;2023-11-21T06:17:45;2.17;;;1.33;;
7607;SDS011;3845;48.120;11.534;2023-11-21T06:20:14;3.43;;;1.70;;
7607;SDS011;3845;48.120;11.534;2023-11-21T06:22:41;2.40;;;1.40;;
7607;SDS011;3845;48.120;11.534;2023-11-21T06:25:07;4.73;;;2.60;;
7607;SDS011;3845;48.120;11.534;2023-11-21T06:27:46;4.50;;;2.67;;
7607;SDS011;3845;48.120;11.534;2023-11-21T06:30:15;5.13;;;3.17;;
7607;SDS011;3845;48.120;11.534;2023-11-21T06:32:40;5.03;;;1.87;;
7607;SDS011;3845;48.120;11.534;2023-11-21T06:35:06;2.73;;;1.50;;
7607;SDS011;3845;48.120;11.534;2023-11-21T06:37:33;3.27;;;1.37;;
7607;SDS011;3845;48.120;11.534;2023-11-21T06:39:59;2.77;;;1.80;;
7607;SDS011;3845;48.120;11.534;2023-11-21T06:42:25;4.10;;;2.27;;
7607;SDS011;3845;48.120;11.534;2023-11-21T06:44:51;3.33;;;2.53;;
7607;SDS011;3845;48.120;11.534;2023-11-21T06:47:21;4.23;;;2.40;;
7607;SDS011;3845;48.120;11.534;2023-11-21T06:49:49;3.13;;;2.30;;
7607;SDS011;3845;48.120;11.534;2023-11-21T06:52:15;3.63;;;2.70;;
7607;SDS011;3845;48.120;11.534;2023-11-21T06:54:40;4.43;;;3.23;;
7607;SDS011;3845;48.120;11.534;2023-11-21T06:57:05;4.33;;;2.37;;
7607;SDS011;3845;48.120;11.534;2023-11-21T06:59:31;2.77;;;1.47;;
7607;SDS011;3845;48.120;11.534;2023-11-21T07:01:56;3.23;;;2.23;;
7607;SDS011;3845;48.120;11.534;2023-11-21T07:04:22;5.97;;;2.57;;
7607;SDS011;3845;48.120;11.534;2023-11-21T07:06:47;4.27;;;2.00;;
7607;SDS011;3845;48.120;11.534;2023-11-21T07:09:12;1.90;;;1.20;;
7607;SDS011;3845;48.120;11.534;2023-11-21T07:11:38;1.93;;;1.00;;
7607;SDS011;3845;48.120;11.534;2023-11-21T07:14:03;2.77;;;1.30;;
7607;SDS011;3845;48.120;11.534;2023-11-21T07:16:33;2.47;;;1.10;;
7607;SDS011;3845;48.120;11.534;2023-11-21T07:19:06;2.87;;;1.10;;
7607;SDS011;3845;48.120;11.534;2023-11-21T07:21:32;2.33;;;1.20;;
7607;SDS011;3845;48.120;11.534;2023-11-21T07:23:59;1.27;;;0.90;;
7607;SDS011;3845;48.120;11.534;2023-11-21T07:26:26;2.17;;;1.10;;
7607;SDS011;3845;48.120;11.534;2023-11-21T07:28:52;3.30;;;1.30;;
7607;SDS011;3845;48.120;11.534;2023-11-21T07:31:17;2.00;;;1.10;;
7607;SDS011;3845;48.120;11.534;2023-11-21T07:33:42;2.37;;;1.30;;
7607;SDS011;3845;48.120;11.534;2023-11-21T07:36:08;3.30;;;1.20;;
7607;SDS011;3845;48.120;11.534;2023-11-21T07:38:33;4.63;;;1.20;;
7607;SDS011;3845;48.120;11.534;2023-11-21T07:40:59;1.73;;;1.03;;
7607;SDS011;3845;48.120;11.534;2023-11-21T07:43:26;2.40;;;1.30;;
7607;SDS011;3845;48.120;11.534;2023-11-21T07:45:51;2.57;;;1.30;;
7607;SDS011;3845;48.120;11.534;2023-11-21T07:48:17;1.93;;;1.20;;
7607;SDS011;3845;48.120;11.534;2023-11-21T07:50:42;3.77;;;1.50;;
7607;SDS011;3845;48.120;11.534;2023-11-21T07:53:07;3.57;;;2.63;;
7607;SDS011;3845;48.120;11.534;2023-11-21T07:55:32;8.50;;;5.00;;
7607;SDS011;3845;48.120;11.534;2023-11-21T07:57:58;5.47;;;2.80;;
7607;SDS011;3845;48.120;11.534;2023-11-21T08:00:23;6.23;;;2.17;;
7607;SDS011;3845;48.120;11.534;2023-11-21T08:02:49;2.73;;;1.77;;
7607;SDS011;3845;48.120;11.534;2023-11-21T08:05:14;1.90;;;1.27;;
7607;SDS011;3845;48.120;11.534;2023-11-21T08:07:40;2.40;;;1.50;;
7607;SDS011;3845;48.120;11.534;2023-11-21T08:10:05;2.87;;;1.67;;
7607;SDS011;3845;48.120;11.534;2023-11-21T08:12:31;2.60;;;1.40;;
7607;SDS011;3845;48.120;11.534;2023-11-21T08:14:57;2.67;;;1.50;;
7607;SDS011;3845;48.120;11.534;2023-11-21T08:17:22;3.47;;;1.30;;
7607;SDS011;3845;48.120;11.534;2023-11-21T08:19:48;1.87;;;1.20;;
7607;SDS011;3845;48.120;11.534;2023-11-21T08:22:17;3.20;;;1.70;;
7607;SDS011;3845;48.120;11.534;2023-11-21T08:24:43;2.87;;;1.50;;
7607;SDS011;3845;48.120;11.534;2023-11-21T08:27:08;3.03;;;1.57;;
7607;SDS011;3845;48.120;11.534;2023-11-21T08:29:34;3.53;;;1.37;;
7607;SDS011;3845;48.120;11.534;2023-11-21T08:32:01;2.97;;;1.20;;
7607;SDS011;3845;48.120;11.534;2023-11-21T08:34:27;3.07;;;1.20;;
7607;SDS011;3845;48.120;11.534;2023-11-21T08:36:53;4.43;;;1.23;;
7607;SDS011;3845;48.120;11.534;2023-11-21T08:39:18;2.37;;;1.10;;
7607;SDS011;3845;48.120;11.534;2023-11-21T08:41:44;1.80;;;1.23;;
7607;SDS011;3845;48.120;11.534;2023-11-21T08:44:09;2.47;;;1.50;;
7607;SDS011;3845;48.120;11.534;2023-11-21T08:46:34;2.57;;;1.23;;
7607;SDS011;3845;48.120;11.534;2023-11-21T08:49:02;1.63;;;1.10;;
7607;SDS011;3845;48.120;11.534;2023-11-21T08:51:28;1.90;;;1.50;;
7607;SDS011;3845;48.120;11.534;2023-11-21T08:53:53;2.93;;;1.80;;
7607;SDS011;3845;48.120;11.534;2023-11-21T08:56:19;2.33;;;1.40;;
7607;SDS011;3845;48.120;11.534;2023-11-21T08:58:45;2.27;;;1.30;;
7607;SDS011;3845;48.120;11.534;2023-11-21T09:01:11;1.50;;;1.10;;
7607;SDS011;3845;48.120;11.534;2023-11-21T09:03:37;1.67;;;1.07;;
7607;SDS011;3845;48.120;11.534;2023-11-21T09:06:02;3.07;;;1.10;;
7607;SDS011;3845;48.120;11.534;2023-11-21T09:08:28;1.80;;;1.40;;
7607;SDS011;3845;48.120;11.534;2023-11-21T09:10:54;1.37;;;0.90;;
7607;SDS011;3845;48.120;11.534;2023-11-21T09:13:19;1.43;;;1.00;;
7607;SDS011;3845;48.120;11.534;2023-11-21T09:15:45;2.17;;;1.40;;
7607;SDS011;3845;48.120;11.534;2023-11-21T09:18:12;1.57;;;1.07;;
7607;SDS011;3845;48.120;11.534;2023-11-21T09:20:38;2.93;;;1.73;;
7607;SDS011;3845;48.120;11.534;2023-11-21T09:23:03;2.50;;;1.57;;
7607;SDS011;3845;48.120;11.534;2023-11-21T09:25:29;3.57;;;2.17;;
7607;SDS011;3845;48.120;11.534;2023-11-21T09:27:54;1.67;;;1.40;;
7607;SDS011;3845;48.120;11.534;2023-11-21T09:30:19;4.60;;;1.90;;
7607;SDS011;3845;48.120;11.534;2023-11-21T09:32:45;5.20;;;3.13;;
7607;SDS011;3845;48.120;11.534;2023-11-21T09:35:10;3.00;;;1.70;;
7607;SDS011;3845;48.120;11.534;2023-11-21T09:37:36;3.27;;;1.70;;
7607;SDS011;3845;48.120;11.534;2023-11-21T09:40:02;2.63;;;1.50;;
7607;SDS011;3845;48.120;11.534;2023-11-21T09:42:30;3.00;;;1.07;;
7607;SDS011;3845;48.120;11.534;2023-11-21T09:45:05;5.10;;;1.53;;
7607;SDS011;3845;48.120;11.534;2023-11-21T09:47:35;3.13;;;1.33;;
7607;SDS011;3845;48.120;11.534;2023-11-21T09:50:03;2.87;;;1.50;;
7607;SDS011;3845;48.120;11.534;2023-11-21T09:52:32;1.67;;;1.00;;
7607;SDS011;3845;48.120;11.534;2023-11-21T09:55:05;1.80;;;1.20;;
7607;SDS011;3845;48.120;11.534;2023-11-21T09:57:31;1.43;;;1.03;;
7607;SDS011;3845;48.120;11.534;2023-11-21T09:59:58;3.57;;;1.20;;
7607;SDS011;3845;48.120;11.534;2023-11-21T10:02:28;2.83;;;1.30;;
7607;SDS011;3845;48.120;11.534;2023-11-21T10:04:55;3.00;;;2.33;;
7607;SDS011;3845;48.120;11.534;2023-11-21T10:07:21;2.37;;;1.83;;
7607;SDS011;3845;48.120;11.534;2023-11-21T10:09:47;2.40;;;1.30;;
7607;SDS011;3845;48.120;11.534;2023-11-21T10:12:14;2.20;;;1.20;;
7607;SDS011;3845;48.120;11.534;2023-11-21T10:14:40;1.73;;;1.13;;
7607;SDS011;3845;48.120;11.534;2023-11-21T10:17:07;1.93;;;1.30;;
7607;SDS011;3845;48.120;11.534;2023-11-21T10:19:33;2.37;;;1.20;;
7607;SDS011;3845;48.120;11.534;2023-11-21T10:22:00;2.33;;;1.47;;
7607;SDS011;3845;48.120;11.534;2023-11-21T10:24:26;1.67;;;1.37;;
7607;SDS011;3845;48.120;11.534;2023-11-21T10:26:52;2.27;;;1.33;;
7607;SDS011;3845;48.120;11.534;2023-11-21T10:29:18;2.63;;;1.77;;
7607;SDS011;3845;48.120;11.534;2023-11-21T10:31:44;3.40;;;2.00;;
7607;SDS011;3845;48.120;11.534;2023-11-21T10:36:38;2.80;;;1.80;;
7607;SDS011;3845;48.120;11.534;2023-11-21T10:39:03;2.30;;;1.47;;
7607;SDS011;3845;48.120;11.534;2023-11-21T10:41:28;2.87;;;1.70;;
7607;SDS011;3845;48.120;11.534;2023-11-21T10:43:54;2.70;;;1.50;;
7607;SDS011;3845;48.120;11.534;2023-11-21T10:46:20;4.90;;;1.60;;
7607;SDS011;3845;48.120;11.534;2023-11-21T10:48:50;2.73;;;1.23;;
7607;SDS011;3845;48.120;11.534;2023-11-21T10:51:17;2.10;;;1.20;;
7607;SDS011;3845;48.120;11.534;2023-11-21T10:53:44;3.27;;;1.40;;
7607;SDS011;3845;48.120;11.534;2023-11-21T10:56:10;2.37;;;1.30;;
7607;SDS011;3845;48.120;11.534;2023-11-21T10:58:42;2.17;;;1.30;;
7607;SDS011;3845;48.120;11.534;2023-11-21T11:01:08;2.03;;;1.20;;
7607;SDS011;3845;48.120;11.534;2023-11-21T11:03:36;2.13;;;1.20;;
7607;SDS011;3845;48.120;11.534;2023-11-21T11:06:03;3.33;;;1.30;;
7607;SDS011;3845;48.120;11.534;2023-11-21T11:08:32;2.53;;;1.17;;
7607;SDS011;3845;48.120;11.534;2023-11-21T11:10:57;1.87;;;1.20;;
7607;SDS011;3845;48.120;11.534;2023-11-21T11:13:23;2.03;;;1.27;;
7607;SDS011;3845;48.120;11.534;2023-11-21T11:15:49;2.90;;;1.50;;
7607;SDS011;3845;48.120;11.534;2023-11-21T11:18:15;2.53;;;1.40;;
7607;SDS011;3845;48.120;11.534;2023-11-21T11:20:41;2.70;;;1.50;;
7607;SDS011;3845;48.120;11.534;2023-11-21T11:34:32;4.33;;;1.47;;
7607;SDS011;3845;48.120;11.534;2023-11-21T11:37:02;2.17;;;1.20;;
7607;SDS011;3845;48.120;11.534;2023-11-21T11:39:40;1.47;;;1.20;;
7607;SDS011;3845;48.120;11.534;2023-11-21T11:42:10;1.87;;;1.30;;
7607;SDS011;3845;48.120;11.534;2023-11-21T11:49:59;2.80;;;1.20;;
7607;SDS011;3845;48.120;11.534;2023-11-21T11:55:02;2.70;;;1.60;;
7607;SDS011;3845;48.120;11.534;2023-11-21T11:57:31;3.67;;;3.10;;
7607;SDS011;3845;48.120;11.534;2023-11-21T12:00:16;2.13;;;1.80;;
7607;SDS011;3845;48.120;11.534;2023-11-21T12:02:49;3.23;;;1.70;;
7607;SDS011;3845;48.120;11.534;2023-11-21T12:05:19;2.70;;;1.53;;
7607;SDS011;3845;48.120;11.534;2023-11-21T12:10:19;2.73;;;1.23;;
7607;SDS011;3845;48.120;11.534;2023-11-21T12:12:46;1.80;;;1.20;;
7607;SDS011;3845;48.120;11.534;2023-11-21T12:15:14;1.93;;;1.00;;
7607;SDS011;3845;48.120;11.534;2023-11-21T12:17:43;2.73;;;2.07;;
7607;SDS011;3845;48.120;11.534;2023-11-21T12:20:10;2.03;;;1.70;;
7607;SDS011;3845;48.120;11.534;2023-11-21T12:22:45;2.23;;;1.50;;
7607;SDS011;3845;48.120;11.534;2023-11-21T12:25:12;2.07;;;1.47;;
7607;SDS011;3845;48.120;11.534;2023-11-21T12:27:54;2.17;;;1.20;;
7607;SDS011;3845;48.120;11.534;2023-11-21T12:30:20;1.50;;;1.10;;
7607;SDS011;3845;48.120;11.534;2023-11-21T12:32:54;1.40;;;1.10;;
7607;SDS011;3845;48.120;11.534;2023-11-21T12:35:21;1.40;;;1.00;;
7607;SDS011;3845;48.120;11.534;2023-11-21T12:37:48;1.97;;;1.00;;
7607;SDS011;3845;48.120;11.534;2023-11-21T12:40:13;1.40;;;1.10;;
7607;SDS011;3845;48.120;11.534;2023-11-21T12:42:42;1.67;;;1.20;;
7607;SDS011;3845;48.120;11.534;2023-11-21T12:45:18;1.90;;;1.30;;
7607;SDS011;3845;48.120;11.534;2023-11-21T12:47:50;2.20;;;1.20;;
7607;SDS011;3845;48.120;11.534;2023-11-21T12:50:20;2.03;;;1.10;;
7607;SDS011;3845;48.120;11.534;2023-11-21T12:52:48;1.43;;;1.10;;
7607;SDS011;3845;48.120;11.534;2023-11-21T12:55:18;4.10;;;3.37;;
7607;SDS011;3845;48.120;11.534;2023-11-21T12:57:47;2.67;;;2.10;;
7607;SDS011;3845;48.120;11.534;2023-11-21T13:00:17;1.83;;;1.50;;
7607;SDS011;3845;48.120;11.534;2023-11-21T13:02:52;1.93;;;1.47;;
7607;SDS011;3845;48.120;11.534;2023-11-21T13:05:25;1.60;;;1.30;;
7607;SDS011;3845;48.120;11.534;2023-11-21T13:07:52;1.50;;;1.20;;
7607;SDS011;3845;48.120;11.534;2023-11-21T13:10:19;2.13;;;1.30;;
7607;SDS011;3845;48.120;11.534;2023-11-21T13:12:56;1.53;;;1.20;;
7607;SDS011;3845;48.120;11.534;2023-11-21T13:15:26;1.27;;;1.10;;
7607;SDS011;3845;48.120;11.534;2023-11-21T13:17:52;1.20;;;1.10;;
7607;SDS011;3845;48.120;11.534;2023-11-21T13:20:18;1.83;;;1.30;;
7607;SDS011;3845;48.120;11.534;2023-11-21T13:22:49;2.97;;;1.33;;
7607;SDS011;3845;48.120;11.534;2023-11-21T13:25:16;2.87;;;1.50;;
7607;SDS011;3845;48.120;11.534;2023-11-21T13:27:43;1.90;;;1.40;;
7607;SDS011;3845;48.120;11.534;2023-11-21T13:30:10;2.00;;;1.40;;
7607;SDS011;3845;48.120;11.534;2023-11-21T13:32:40;1.97;;;1.47;;
7607;SDS011;3845;48.120;11.534;2023-11-21T13:35:05;3.83;;;2.20;;
7607;SDS011;3845;48.120;11.534;2023-11-21T13:37:33;2.40;;;1.60;;
7607;SDS011;3845;48.120;11.534;2023-11-21T13:39:59;2.30;;;1.90;;
7607;SDS011;3845;48.120;11.534;2023-11-21T13:42:25;3.63;;;1.70;;
7607;SDS011;3845;48.120;11.534;2023-11-21T13:44:56;2.40;;;1.57;;
7607;SDS011;3845;48.120;11.534;2023-11-21T13:47:22;2.87;;;1.83;;
7607;SDS011;3845;48.120;11.534;2023-11-21T13:49:50;2.70;;;1.70;;
7607;SDS011;3845;48.120;11.534;2023-11-21T13:52:15;3.77;;;1.77;;
7607;SDS011;3845;48.120;11.534;2023-11-21T13:54:42;4.67;;;1.40;;
7607;SDS011;3845;48.120;11.534;2023-11-21T13:57:07;2.47;;;1.30;;
7607;SDS011;3845;48.120;11.534;2023-11-21T13:59:33;4.63;;;1.50;;
7607;SDS011;3845;48.120;11.534;2023-11-21T14:01:58;2.50;;;1.43;;
7607;SDS011;3845;48.120;11.534;2023-11-21T14:04:42;1.97;;;1.00;;
7607;SDS011;3845;48.120;11.534;2023-11-21T14:07:21;1.97;;;1.00;;
7607;SDS011;3845;48.120;11.534;2023-11-21T14:09:56;1.63;;;0.90;;
7607;SDS011;3845;48.120;11.534;2023-11-21T14:12:23;1.17;;;1.00;;
7607;SDS011;3845;48.120;11.534;2023-11-21T14:14:49;0.73;;;0.70;;
7607;SDS011;3845;48.120;11.534;2023-11-21T14:17:14;1.43;;;0.80;;
7607;SDS011;3845;48.120;11.534;2023-11-21T14:19:39;1.37;;;1.07;;
7607;SDS011;3845;48.120;11.534;2023-11-21T14:22:08;1.87;;;1.20;;
7607;SDS011;3845;48.120;11.534;2023-11-21T14:24:34;1.30;;;1.03;;
7607;SDS011;3845;48.120;11.534;2023-11-21T14:27:00;0.80;;;0.80;;
7607;SDS011;3845;48.120;11.534;2023-11-21T14:29:25;4.17;;;1.20;;
7607;SDS011;3845;48.120;11.534;2023-11-21T14:31:52;1.87;;;1.20;;
7607;SDS011;3845;48.120;11.534;2023-11-21T14:34:21;1.30;;;1.00;;
7607;SDS011;3845;48.120;11.534;2023-11-21T14:36:46;2.13;;;1.03;;
7607;SDS011;3845;48.120;11.534;2023-11-21T14:39:12;1.10;;;1.00;;
7607;SDS011;3845;48.120;11.534;2023-11-21T14:41:52;1.13;;;0.97;;
7607;SDS011;3845;48.120;11.534;2023-11-21T14:44:18;1.00;;;0.90;;
7607;SDS011;3845;48.120;11.534;2023-11-21T14:46:43;1.00;;;0.90;;
7607;SDS011;3845;48.120;11.534;2023-11-21T14:49:11;2.37;;;1.00;;
7607;SDS011;3845;48.120;11.534;2023-11-21T14:51:47;1.90;;;1.17;;
7607;SDS011;3845;48.120;11.534;2023-11-21T14:54:31;1.60;;;1.07;;
7607;SDS011;3845;48.120;11.534;2023-11-21T14:57:06;2.10;;;1.10;;
7607;SDS011;3845;48.120;11.534;2023-11-21T14:59:36;1.03;;;0.93;;
7607;SDS011;3845;48.120;11.534;2023-11-21T15:02:01;1.60;;;1.20;;
7607;SDS011;3845;48.120;11.534;2023-11-21T15:04:39;1.60;;;1.23;;
7607;SDS011;3845;48.120;11.534;2023-11-21T15:07:07;2.93;;;1.10;;
7607;SDS011;3845;48.120;11.534;2023-11-21T15:09:33;1.77;;;1.30;;
7607;SDS011;3845;48.120;11.534;2023-11-21T15:12:08;1.73;;;1.30;;
7607;SDS011;3845;48.120;11.534;2023-11-21T15:14:47;2.27;;;1.00;;
7607;SDS011;3845;48.120;11.534;2023-11-21T15:17:15;1.43;;;1.10;;
7607;SDS011;3845;48.120;11.534;2023-11-21T15:19:47;2.13;;;1.40;;
7607;SDS011;3845;48.120;11.534;2023-11-21T15:22:13;2.07;;;1.00;;